sensor_id;sensor_type;location;lat;lon;timestamp;P1;durP1;ratioP1;P2;durP2;ratioP2
45887;SDS011;31595;51.418;7.572;2023-08-20T00:01:44;3.70;;;2.03;;
45887;SDS011;31595;51.418;7.572;2023-08-20T00:04:11;3.83;;;1.90;;
45887;SDS011;31595;51.418;7.572;2023-08-20T00:06:38;3.22;;;1.98;;
45887;SDS011;31595;51.418;7.572;2023-08-20T00:09:08;3.83;;;1.90;;
45887;SDS011;31595;51.418;7.572;2023-08-20T00:11:36;3.72;;;1.83;;
45887;SDS011;31595;51.418;7.572;2023-08-20T00:14:05;3.65;;;2.17;;
45887;SDS011;31595;51.418;7.572;2023-08-20T00:16:32;3.23;;;2.07;;
45887;SDS011;31595;51.418;7.572;2023-08-20T00:19:00;3.72;;;2.55;;
45887;SDS011;31595;51.418;7.572;2023-08-20T00:21:27;5.38;;;2.50;;
45887;SDS011;31595;51.418;7.572;2023-08-20T00:23:53;3.10;;;2.30;;
45887;SDS011;31595;51.418;7.572;2023-08-20T00:26:20;3.90;;;2.50;;
45887;SDS011;31595;51.418;7.572;2023-08-20T00:28:47;3.40;;;2.35;;
45887;SDS011;31595;51.418;7.572;2023-08-20T00:31:16;3.15;;;2.47;;
45887;SDS011;31595;51.418;7.572;2023-08-20T00:33:42;3.38;;;2.17;;
45887;SDS011;31595;51.418;7.572;2023-08-20T00:36:09;2.95;;;1.80;;
45887;SDS011;31595;51.418;7.572;2023-08-20T00:38:36;5.68;;;2.28;;
45887;SDS011;31595;51.418;7.572;2023-08-20T00:41:03;3.65;;;2.17;;
45887;SDS011;31595;51.418;7.572;2023-08-20T00:43:29;3.25;;;1.92;;
45887;SDS011;31595;51.418;7.572;2023-08-20T00:45:58;4.32;;;2.45;;
45887;SDS011;31595;51.418;7.572;2023-08-20T00:48:26;3.97;;;1.90;;
45887;SDS011;31595;51.418;7.572;2023-08-20T00:50:53;2.92;;;1.70;;
45887;SDS011;31595;51.418;7.572;2023-08-20T00:53:20;3.80;;;2.15;;
45887;SDS011;31595;51.418;7.572;2023-08-20T00:55:47;4.10;;;2.55;;
45887;SDS011;31595;51.418;7.572;2023-08-20T00:58:13;3.53;;;1.98;;
45887;SDS011;31595;51.418;7.572;2023-08-20T01:00:40;3.28;;;2.10;;
45887;SDS011;31595;51.418;7.572;2023-08-20T01:03:07;6.72;;;2.00;;
45887;SDS011;31595;51.418;7.572;2023-08-20T01:05:37;2.80;;;1.65;;
45887;SDS011;31595;51.418;7.572;2023-08-20T01:08:09;4.00;;;2.13;;
45887;SDS011;31595;51.418;7.572;2023-08-20T01:10:39;4.80;;;2.15;;
45887;SDS011;31595;51.418;7.572;2023-08-20T01:13:09;2.38;;;1.60;;
45887;SDS011;31595;51.418;7.572;2023-08-20T01:15:36;3.33;;;2.00;;
45887;SDS011;31595;51.418;7.572;2023-08-20T01:18:03;5.50;;;2.47;;
45887;SDS011;31595;51.418;7.572;2023-08-20T01:20:30;4.25;;;2.17;;
45887;SDS011;31595;51.418;7.572;2023-08-20T01:23:05;4.20;;;2.20;;
45887;SDS011;31595;51.418;7.572;2023-08-20T01:25:44;4.55;;;2.03;;
45887;SDS011;31595;51.418;7.572;2023-08-20T01:28:24;3.38;;;2.25;;
45887;SDS011;31595;51.418;7.572;2023-08-20T01:33:18;3.28;;;2.03;;
45887;SDS011;31595;51.418;7.572;2023-08-20T01:35:46;3.33;;;2.03;;
45887;SDS011;31595;51.418;7.572;2023-08-20T01:38:12;2.97;;;1.65;;
45887;SDS011;31595;51.418;7.572;2023-08-20T01:40:39;2.70;;;2.15;;
45887;SDS011;31595;51.418;7.572;2023-08-20T01:43:06;3.08;;;2.10;;
45887;SDS011;31595;51.418;7.572;2023-08-20T01:45:35;3.60;;;2.20;;
45887;SDS011;31595;51.418;7.572;2023-08-20T01:48:02;3.60;;;2.07;;
45887;SDS011;31595;51.418;7.572;2023-08-20T01:50:29;3.33;;;2.25;;
45887;SDS011;31595;51.418;7.572;2023-08-20T01:52:56;8.35;;;2.55;;
45887;SDS011;31595;51.418;7.572;2023-08-20T01:55:23;3.25;;;2.15;;
45887;SDS011;31595;51.418;7.572;2023-08-20T01:57:49;3.97;;;1.90;;
45887;SDS011;31595;51.418;7.572;2023-08-20T02:00:16;4.38;;;1.80;;
45887;SDS011;31595;51.418;7.572;2023-08-20T02:02:44;3.33;;;1.85;;
45887;SDS011;31595;51.418;7.572;2023-08-20T02:05:11;2.40;;;1.30;;
45887;SDS011;31595;51.418;7.572;2023-08-20T02:07:38;4.05;;;2.10;;
45887;SDS011;31595;51.418;7.572;2023-08-20T02:10:05;2.15;;;1.70;;
45887;SDS011;31595;51.418;7.572;2023-08-20T02:12:32;3.72;;;1.83;;
45887;SDS011;31595;51.418;7.572;2023-08-20T02:14:59;3.05;;;1.80;;
45887;SDS011;31595;51.418;7.572;2023-08-20T02:17:25;2.15;;;1.50;;
45887;SDS011;31595;51.418;7.572;2023-08-20T02:19:53;2.38;;;1.60;;
45887;SDS011;31595;51.418;7.572;2023-08-20T02:22:20;4.18;;;1.90;;
45887;SDS011;31595;51.418;7.572;2023-08-20T02:24:47;5.35;;;2.42;;
45887;SDS011;31595;51.418;7.572;2023-08-20T02:27:14;2.70;;;1.92;;
45887;SDS011;31595;51.418;7.572;2023-08-20T02:29:40;3.22;;;1.65;;
45887;SDS011;31595;51.418;7.572;2023-08-20T02:32:07;3.17;;;2.40;;
45887;SDS011;31595;51.418;7.572;2023-08-20T02:34:34;2.97;;;1.60;;
45887;SDS011;31595;51.418;7.572;2023-08-20T02:37:02;3.90;;;1.90;;
45887;SDS011;31595;51.418;7.572;2023-08-20T02:39:29;3.38;;;1.83;;
45887;SDS011;31595;51.418;7.572;2023-08-20T02:41:56;3.40;;;2.03;;
45887;SDS011;31595;51.418;7.572;2023-08-20T02:44:23;3.05;;;1.73;;
45887;SDS011;31595;51.418;7.572;2023-08-20T02:46:50;2.83;;;2.05;;
45887;SDS011;31595;51.418;7.572;2023-08-20T02:49:17;3.28;;;1.48;;
45887;SDS011;31595;51.418;7.572;2023-08-20T02:51:43;5.28;;;2.28;;
45887;SDS011;31595;51.418;7.572;2023-08-20T02:54:12;2.55;;;1.80;;
45887;SDS011;31595;51.418;7.572;2023-08-20T02:56:38;4.57;;;2.17;;
45887;SDS011;31595;51.418;7.572;2023-08-20T02:59:05;2.20;;;1.70;;
45887;SDS011;31595;51.418;7.572;2023-08-20T03:01:32;4.18;;;1.85;;
45887;SDS011;31595;51.418;7.572;2023-08-20T03:03:59;5.32;;;2.38;;
45887;SDS011;31595;51.418;7.572;2023-08-20T03:06:25;2.90;;;1.70;;
45887;SDS011;31595;51.418;7.572;2023-08-20T03:08:52;2.08;;;1.40;;
45887;SDS011;31595;51.418;7.572;2023-08-20T03:11:20;2.88;;;2.05;;
45887;SDS011;31595;51.418;7.572;2023-08-20T03:13:47;3.30;;;1.95;;
45887;SDS011;31595;51.418;7.572;2023-08-20T03:16:14;4.03;;;2.33;;
45887;SDS011;31595;51.418;7.572;2023-08-20T03:18:41;3.92;;;2.08;;
45887;SDS011;31595;51.418;7.572;2023-08-20T03:21:08;3.92;;;1.92;;
45887;SDS011;31595;51.418;7.572;2023-08-20T03:23:35;3.08;;;2.10;;
45887;SDS011;31595;51.418;7.572;2023-08-20T03:26:02;3.42;;;1.95;;
45887;SDS011;31595;51.418;7.572;2023-08-20T03:28:30;2.90;;;1.80;;
45887;SDS011;31595;51.418;7.572;2023-08-20T03:30:59;3.20;;;2.10;;
45887;SDS011;31595;51.418;7.572;2023-08-20T03:33:25;3.90;;;2.25;;
45887;SDS011;31595;51.418;7.572;2023-08-20T03:35:52;3.53;;;2.30;;
45887;SDS011;31595;51.418;7.572;2023-08-20T03:38:19;3.22;;;2.05;;
45887;SDS011;31595;51.418;7.572;2023-08-20T03:40:46;3.72;;;1.90;;
45887;SDS011;31595;51.418;7.572;2023-08-20T03:43:13;3.22;;;1.90;;
45887;SDS011;31595;51.418;7.572;2023-08-20T03:45:41;3.58;;;2.03;;
45887;SDS011;31595;51.418;7.572;2023-08-20T03:48:08;4.43;;;2.57;;
45887;SDS011;31595;51.418;7.572;2023-08-20T03:50:35;3.10;;;1.95;;
45887;SDS011;31595;51.418;7.572;2023-08-20T03:53:01;4.18;;;2.42;;
45887;SDS011;31595;51.418;7.572;2023-08-20T03:55:28;3.53;;;2.25;;
45887;SDS011;31595;51.418;7.572;2023-08-20T03:57:55;3.28;;;2.08;;
45887;SDS011;31595;51.418;7.572;2023-08-20T04:00:22;3.33;;;2.15;;
45887;SDS011;31595;51.418;7.572;2023-08-20T04:02:50;6.63;;;2.35;;
45887;SDS011;31595;51.418;7.572;2023-08-20T04:05:17;4.38;;;2.03;;
45887;SDS011;31595;51.418;7.572;2023-08-20T04:07:44;3.33;;;2.00;;
45887;SDS011;31595;51.418;7.572;2023-08-20T04:10:11;3.08;;;1.95;;
45887;SDS011;31595;51.418;7.572;2023-08-20T04:12:37;4.60;;;2.53;;
45887;SDS011;31595;51.418;7.572;2023-08-20T04:15:04;3.65;;;1.73;;
45887;SDS011;31595;51.418;7.572;2023-08-20T04:17:31;3.30;;;1.63;;
45887;SDS011;31595;51.418;7.572;2023-08-20T04:19:59;4.60;;;2.33;;
45887;SDS011;31595;51.418;7.572;2023-08-20T04:22:26;2.60;;;2.17;;
45887;SDS011;31595;51.418;7.572;2023-08-20T04:24:55;5.25;;;1.73;;
45887;SDS011;31595;51.418;7.572;2023-08-20T04:27:22;4.15;;;2.55;;
45887;SDS011;31595;51.418;7.572;2023-08-20T04:29:49;3.45;;;2.08;;
45887;SDS011;31595;51.418;7.572;2023-08-20T04:32:16;4.93;;;2.42;;
45887;SDS011;31595;51.418;7.572;2023-08-20T04:34:43;2.67;;;1.85;;
45887;SDS011;31595;51.418;7.572;2023-08-20T04:37:13;3.38;;;1.90;;
45887;SDS011;31595;51.418;7.572;2023-08-20T04:39:39;3.08;;;1.90;;
45887;SDS011;31595;51.418;7.572;2023-08-20T04:42:06;3.70;;;1.70;;
45887;SDS011;31595;51.418;7.572;2023-08-20T04:44:33;3.05;;;1.73;;
45887;SDS011;31595;51.418;7.572;2023-08-20T04:47:01;4.13;;;1.88;;
45887;SDS011;31595;51.418;7.572;2023-08-20T04:49:28;2.60;;;2.13;;
45887;SDS011;31595;51.418;7.572;2023-08-20T04:51:55;2.58;;;1.55;;
45887;SDS011;31595;51.418;7.572;2023-08-20T04:54:23;2.97;;;1.85;;
45887;SDS011;31595;51.418;7.572;2023-08-20T04:56:50;2.72;;;1.80;;
45887;SDS011;31595;51.418;7.572;2023-08-20T04:59:17;3.58;;;2.13;;
45887;SDS011;31595;51.418;7.572;2023-08-20T05:01:44;4.57;;;2.55;;
45887;SDS011;31595;51.418;7.572;2023-08-20T05:04:10;4.93;;;2.60;;
45887;SDS011;31595;51.418;7.572;2023-08-20T05:06:37;4.35;;;1.90;;
45887;SDS011;31595;51.418;7.572;2023-08-20T05:09:04;3.47;;;1.70;;
45887;SDS011;31595;51.418;7.572;2023-08-20T05:11:32;2.80;;;1.90;;
45887;SDS011;31595;51.418;7.572;2023-08-20T05:13:59;5.10;;;2.38;;
45887;SDS011;31595;51.418;7.572;2023-08-20T05:16:26;3.22;;;2.05;;
45887;SDS011;31595;51.418;7.572;2023-08-20T05:18:53;4.28;;;2.25;;
45887;SDS011;31595;51.418;7.572;2023-08-20T05:21:20;4.38;;;2.33;;
45887;SDS011;31595;51.418;7.572;2023-08-20T05:23:47;4.72;;;2.90;;
45887;SDS011;31595;51.418;7.572;2023-08-20T05:26:13;3.85;;;2.22;;
45887;SDS011;31595;51.418;7.572;2023-08-20T05:28:42;5.47;;;2.35;;
45887;SDS011;31595;51.418;7.572;2023-08-20T05:31:08;4.18;;;2.60;;
45887;SDS011;31595;51.418;7.572;2023-08-20T05:33:36;3.65;;;2.30;;
45887;SDS011;31595;51.418;7.572;2023-08-20T05:36:03;3.42;;;1.90;;
45887;SDS011;31595;51.418;7.572;2023-08-20T05:38:30;4.05;;;2.55;;
45887;SDS011;31595;51.418;7.572;2023-08-20T05:40:56;3.83;;;2.42;;
45887;SDS011;31595;51.418;7.572;2023-08-20T05:43:23;3.85;;;2.38;;
45887;SDS011;31595;51.418;7.572;2023-08-20T05:45:51;3.55;;;2.30;;
45887;SDS011;31595;51.418;7.572;2023-08-20T05:48:18;3.85;;;2.67;;
45887;SDS011;31595;51.418;7.572;2023-08-20T05:50:45;3.97;;;2.35;;
45887;SDS011;31595;51.418;7.572;2023-08-20T05:53:11;4.03;;;2.47;;
45887;SDS011;31595;51.418;7.572;2023-08-20T05:55:38;4.75;;;2.58;;
45887;SDS011;31595;51.418;7.572;2023-08-20T05:58:05;3.42;;;2.45;;
45887;SDS011;31595;51.418;7.572;2023-08-20T06:00:32;4.15;;;2.30;;
45887;SDS011;31595;51.418;7.572;2023-08-20T06:03:00;2.70;;;1.80;;
45887;SDS011;31595;51.418;7.572;2023-08-20T06:05:27;4.63;;;1.95;;
45887;SDS011;31595;51.418;7.572;2023-08-20T06:07:54;3.92;;;2.15;;
45887;SDS011;31595;51.418;7.572;2023-08-20T06:10:21;3.90;;;2.45;;
45887;SDS011;31595;51.418;7.572;2023-08-20T06:12:47;4.10;;;2.42;;
45887;SDS011;31595;51.418;7.572;2023-08-20T06:15:14;4.05;;;2.28;;
45887;SDS011;31595;51.418;7.572;2023-08-20T06:17:41;4.63;;;2.20;;
45887;SDS011;31595;51.418;7.572;2023-08-20T06:20:10;3.60;;;2.42;;
45887;SDS011;31595;51.418;7.572;2023-08-20T06:22:37;2.97;;;2.40;;
45887;SDS011;31595;51.418;7.572;2023-08-20T06:25:04;3.00;;;1.98;;
45887;SDS011;31595;51.418;7.572;2023-08-20T06:27:31;3.92;;;2.55;;
45887;SDS011;31595;51.418;7.572;2023-08-20T06:29:58;3.38;;;2.03;;
45887;SDS011;31595;51.418;7.572;2023-08-20T06:32:25;3.55;;;2.47;;
45887;SDS011;31595;51.418;7.572;2023-08-20T06:34:52;3.70;;;2.40;;
45887;SDS011;31595;51.418;7.572;2023-08-20T06:37:20;3.75;;;2.40;;
45887;SDS011;31595;51.418;7.572;2023-08-20T06:39:47;4.67;;;2.93;;
45887;SDS011;31595;51.418;7.572;2023-08-20T06:42:14;4.05;;;2.70;;
45887;SDS011;31595;51.418;7.572;2023-08-20T06:44:41;4.53;;;3.05;;
45887;SDS011;31595;51.418;7.572;2023-08-20T06:47:08;5.53;;;2.83;;
45887;SDS011;31595;51.418;7.572;2023-08-20T06:49:34;4.57;;;3.13;;
45887;SDS011;31595;51.418;7.572;2023-08-20T06:52:01;5.30;;;2.58;;
45887;SDS011;31595;51.418;7.572;2023-08-20T06:54:29;4.45;;;2.72;;
45887;SDS011;31595;51.418;7.572;2023-08-20T06:56:56;7.00;;;2.33;;
45887;SDS011;31595;51.418;7.572;2023-08-20T06:59:23;5.18;;;3.08;;
45887;SDS011;31595;51.418;7.572;2023-08-20T07:01:50;5.70;;;3.17;;
45887;SDS011;31595;51.418;7.572;2023-08-20T07:04:16;4.05;;;2.38;;
45887;SDS011;31595;51.418;7.572;2023-08-20T07:06:43;4.32;;;2.42;;
45887;SDS011;31595;51.418;7.572;2023-08-20T07:09:10;4.30;;;2.90;;
45887;SDS011;31595;51.418;7.572;2023-08-20T07:11:38;4.93;;;2.17;;
45887;SDS011;31595;51.418;7.572;2023-08-20T07:14:05;4.72;;;2.75;;
45887;SDS011;31595;51.418;7.572;2023-08-20T07:16:32;4.85;;;3.05;;
45887;SDS011;31595;51.418;7.572;2023-08-20T07:18:59;3.20;;;2.45;;
45887;SDS011;31595;51.418;7.572;2023-08-20T07:21:25;4.88;;;2.40;;
45887;SDS011;31595;51.418;7.572;2023-08-20T07:23:52;3.78;;;2.00;;
45887;SDS011;31595;51.418;7.572;2023-08-20T07:26:19;6.10;;;2.97;;
45887;SDS011;31595;51.418;7.572;2023-08-20T07:28:47;3.85;;;2.47;;
45887;SDS011;31595;51.418;7.572;2023-08-20T07:31:23;5.43;;;3.08;;
45887;SDS011;31595;51.418;7.572;2023-08-20T07:33:51;4.30;;;2.97;;
45887;SDS011;31595;51.418;7.572;2023-08-20T07:36:18;4.55;;;2.70;;
45887;SDS011;31595;51.418;7.572;2023-08-20T07:38:47;4.35;;;2.65;;
45887;SDS011;31595;51.418;7.572;2023-08-20T07:41:14;4.95;;;1.90;;
45887;SDS011;31595;51.418;7.572;2023-08-20T07:43:41;4.57;;;2.28;;
45887;SDS011;31595;51.418;7.572;2023-08-20T07:46:09;4.80;;;2.30;;
45887;SDS011;31595;51.418;7.572;2023-08-20T07:48:36;4.60;;;2.50;;
45887;SDS011;31595;51.418;7.572;2023-08-20T07:51:03;5.10;;;2.72;;
45887;SDS011;31595;51.418;7.572;2023-08-20T07:53:30;3.83;;;2.50;;
45887;SDS011;31595;51.418;7.572;2023-08-20T07:55:57;3.75;;;2.30;;
45887;SDS011;31595;51.418;7.572;2023-08-20T07:58:23;4.90;;;2.90;;
45887;SDS011;31595;51.418;7.572;2023-08-20T08:00:50;3.67;;;2.28;;
45887;SDS011;31595;51.418;7.572;2023-08-20T08:03:19;5.03;;;2.80;;
45887;SDS011;31595;51.418;7.572;2023-08-20T08:05:46;5.28;;;2.50;;
45887;SDS011;31595;51.418;7.572;2023-08-20T08:08:12;4.88;;;2.83;;
45887;SDS011;31595;51.418;7.572;2023-08-20T08:10:40;3.05;;;2.38;;
45887;SDS011;31595;51.418;7.572;2023-08-20T08:13:10;3.60;;;2.47;;
45887;SDS011;31595;51.418;7.572;2023-08-20T08:15:36;4.47;;;2.95;;
45887;SDS011;31595;51.418;7.572;2023-08-20T08:18:04;5.13;;;2.63;;
45887;SDS011;31595;51.418;7.572;2023-08-20T08:20:32;4.13;;;3.08;;
45887;SDS011;31595;51.418;7.572;2023-08-20T08:22:59;4.15;;;3.22;;
45887;SDS011;31595;51.418;7.572;2023-08-20T08:25:28;4.30;;;2.72;;
45887;SDS011;31595;51.418;7.572;2023-08-20T08:27:55;4.15;;;2.50;;
45887;SDS011;31595;51.418;7.572;2023-08-20T08:30:22;4.13;;;2.90;;
45887;SDS011;31595;51.418;7.572;2023-08-20T08:32:49;4.43;;;2.55;;
45887;SDS011;31595;51.418;7.572;2023-08-20T08:35:16;4.25;;;2.72;;
45887;SDS011;31595;51.418;7.572;2023-08-20T08:37:44;3.67;;;2.63;;
45887;SDS011;31595;51.418;7.572;2023-08-20T08:40:12;3.22;;;2.13;;
45887;SDS011;31595;51.418;7.572;2023-08-20T08:42:39;2.92;;;2.00;;
45887;SDS011;31595;51.418;7.572;2023-08-20T08:45:07;4.35;;;2.72;;
45887;SDS011;31595;51.418;7.572;2023-08-20T08:47:35;5.88;;;2.83;;
45887;SDS011;31595;51.418;7.572;2023-08-20T08:50:03;5.50;;;2.78;;
45887;SDS011;31595;51.418;7.572;2023-08-20T08:52:30;3.58;;;2.47;;
45887;SDS011;31595;51.418;7.572;2023-08-20T08:54:59;3.25;;;2.35;;
45887;SDS011;31595;51.418;7.572;2023-08-20T08:57:26;3.60;;;1.90;;
45887;SDS011;31595;51.418;7.572;2023-08-20T08:59:53;3.47;;;1.67;;
45887;SDS011;31595;51.418;7.572;2023-08-20T09:02:20;4.72;;;2.17;;
45887;SDS011;31595;51.418;7.572;2023-08-20T09:04:47;5.32;;;2.30;;
45887;SDS011;31595;51.418;7.572;2023-08-20T09:07:14;2.15;;;1.45;;
45887;SDS011;31595;51.418;7.572;2023-08-20T09:09:42;2.25;;;1.38;;
45887;SDS011;31595;51.418;7.572;2023-08-20T09:14:36;2.58;;;1.55;;
45887;SDS011;31595;51.418;7.572;2023-08-20T09:17:03;4.35;;;1.80;;
45887;SDS011;31595;51.418;7.572;2023-08-20T09:19:34;2.50;;;1.50;;
45887;SDS011;31595;51.418;7.572;2023-08-20T09:22:02;2.22;;;1.17;;
45887;SDS011;31595;51.418;7.572;2023-08-20T09:24:32;3.10;;;1.80;;
45887;SDS011;31595;51.418;7.572;2023-08-20T09:26:59;2.95;;;1.55;;
45887;SDS011;31595;51.418;7.572;2023-08-20T09:29:26;2.97;;;2.00;;
45887;SDS011;31595;51.418;7.572;2023-08-20T09:32:01;2.60;;;1.83;;
45887;SDS011;31595;51.418;7.572;2023-08-20T09:34:35;2.63;;;1.73;;
45887;SDS011;31595;51.418;7.572;2023-08-20T09:37:02;2.42;;;1.58;;
45887;SDS011;31595;51.418;7.572;2023-08-20T09:39:29;2.75;;;1.25;;
45887;SDS011;31595;51.418;7.572;2023-08-20T09:41:56;1.70;;;1.45;;
45887;SDS011;31595;51.418;7.572;2023-08-20T09:44:24;7.55;;;1.38;;
45887;SDS011;31595;51.418;7.572;2023-08-20T09:46:52;2.20;;;1.45;;
45887;SDS011;31595;51.418;7.572;2023-08-20T09:49:20;2.28;;;1.20;;
45887;SDS011;31595;51.418;7.572;2023-08-20T09:51:48;2.33;;;1.60;;
45887;SDS011;31595;51.418;7.572;2023-08-20T09:54:17;2.03;;;1.20;;
45887;SDS011;31595;51.418;7.572;2023-08-20T09:56:46;2.00;;;1.00;;
45887;SDS011;31595;51.418;7.572;2023-08-20T09:59:18;1.65;;;1.20;;
45887;SDS011;31595;51.418;7.572;2023-08-20T10:01:44;2.30;;;1.27;;
45887;SDS011;31595;51.418;7.572;2023-08-20T10:04:13;2.55;;;0.98;;
45887;SDS011;31595;51.418;7.572;2023-08-20T10:06:41;2.30;;;1.20;;
45887;SDS011;31595;51.418;7.572;2023-08-20T10:09:09;1.70;;;1.35;;
45887;SDS011;31595;51.418;7.572;2023-08-20T10:11:36;2.17;;;1.30;;
45887;SDS011;31595;51.418;7.572;2023-08-20T10:14:03;2.92;;;1.60;;
45887;SDS011;31595;51.418;7.572;2023-08-20T10:16:32;2.65;;;1.27;;
45887;SDS011;31595;51.418;7.572;2023-08-20T10:19:01;2.10;;;1.33;;
45887;SDS011;31595;51.418;7.572;2023-08-20T10:21:28;2.35;;;1.42;;
45887;SDS011;31595;51.418;7.572;2023-08-20T10:23:56;2.55;;;1.50;;
45887;SDS011;31595;51.418;7.572;2023-08-20T10:26:23;2.88;;;1.63;;
45887;SDS011;31595;51.418;7.572;2023-08-20T10:28:50;2.63;;;1.63;;
45887;SDS011;31595;51.418;7.572;2023-08-20T10:31:17;2.00;;;1.55;;
45887;SDS011;31595;51.418;7.572;2023-08-20T10:33:53;2.63;;;2.08;;
45887;SDS011;31595;51.418;7.572;2023-08-20T10:36:21;2.13;;;1.60;;
45887;SDS011;31595;51.418;7.572;2023-08-20T10:38:51;1.90;;;1.20;;
45887;SDS011;31595;51.418;7.572;2023-08-20T10:41:25;2.58;;;1.42;;
45887;SDS011;31595;51.418;7.572;2023-08-20T10:43:52;2.80;;;1.10;;
45887;SDS011;31595;51.418;7.572;2023-08-20T10:46:20;2.00;;;1.30;;
45887;SDS011;31595;51.418;7.572;2023-08-20T10:48:47;2.35;;;1.85;;
45887;SDS011;31595;51.418;7.572;2023-08-20T10:51:16;1.80;;;1.27;;
45887;SDS011;31595;51.418;7.572;2023-08-20T10:53:43;2.65;;;1.60;;
45887;SDS011;31595;51.418;7.572;2023-08-20T10:56:14;3.30;;;1.52;;
45887;SDS011;31595;51.418;7.572;2023-08-20T10:58:43;2.00;;;1.33;;
45887;SDS011;31595;51.418;7.572;2023-08-20T11:01:14;2.20;;;1.65;;
45887;SDS011;31595;51.418;7.572;2023-08-20T11:03:42;2.53;;;1.50;;
45887;SDS011;31595;51.418;7.572;2023-08-20T11:06:09;2.70;;;1.73;;
45887;SDS011;31595;51.418;7.572;2023-08-20T11:08:36;2.22;;;1.55;;
45887;SDS011;31595;51.418;7.572;2023-08-20T11:13:32;2.50;;;1.40;;
45887;SDS011;31595;51.418;7.572;2023-08-20T11:16:06;2.60;;;1.60;;
45887;SDS011;31595;51.418;7.572;2023-08-20T11:18:36;1.90;;;1.30;;
45887;SDS011;31595;51.418;7.572;2023-08-20T11:21:03;1.77;;;1.58;;
45887;SDS011;31595;51.418;7.572;2023-08-20T11:23:30;2.17;;;1.60;;
45887;SDS011;31595;51.418;7.572;2023-08-20T11:25:57;2.33;;;1.25;;
45887;SDS011;31595;51.418;7.572;2023-08-20T11:31:12;2.25;;;1.15;;
45887;SDS011;31595;51.418;7.572;2023-08-20T11:33:41;3.28;;;1.70;;
45887;SDS011;31595;51.418;7.572;2023-08-20T11:36:07;2.45;;;1.50;;
45887;SDS011;31595;51.418;7.572;2023-08-20T11:38:34;3.05;;;1.30;;
45887;SDS011;31595;51.418;7.572;2023-08-20T11:41:01;1.67;;;1.20;;
45887;SDS011;31595;51.418;7.572;2023-08-20T11:43:28;2.22;;;1.42;;
45887;SDS011;31595;51.418;7.572;2023-08-20T11:45:55;1.80;;;1.20;;
45887;SDS011;31595;51.418;7.572;2023-08-20T11:48:22;2.07;;;1.40;;
45887;SDS011;31595;51.418;7.572;2023-08-20T11:50:50;3.13;;;1.50;;
45887;SDS011;31595;51.418;7.572;2023-08-20T11:53:20;2.15;;;1.40;;
45887;SDS011;31595;51.418;7.572;2023-08-20T11:55:47;2.35;;;1.35;;
45887;SDS011;31595;51.418;7.572;2023-08-20T11:58:14;2.38;;;1.70;;
45887;SDS011;31595;51.418;7.572;2023-08-20T12:00:47;1.87;;;1.20;;
45887;SDS011;31595;51.418;7.572;2023-08-20T12:03:14;1.58;;;1.15;;
45887;SDS011;31595;51.418;7.572;2023-08-20T12:05:41;2.20;;;1.48;;
45887;SDS011;31595;51.418;7.572;2023-08-20T12:10:41;2.55;;;1.40;;
45887;SDS011;31595;51.418;7.572;2023-08-20T12:13:08;3.17;;;1.77;;
45887;SDS011;31595;51.418;7.572;2023-08-20T12:15:35;2.55;;;1.52;;
45887;SDS011;31595;51.418;7.572;2023-08-20T12:18:02;2.05;;;1.63;;
45887;SDS011;31595;51.418;7.572;2023-08-20T12:20:30;2.55;;;1.83;;
45887;SDS011;31595;51.418;7.572;2023-08-20T12:22:58;2.08;;;1.45;;
45887;SDS011;31595;51.418;7.572;2023-08-20T12:25:26;3.80;;;2.35;;
45887;SDS011;31595;51.418;7.572;2023-08-20T12:32:47;2.05;;;1.60;;
45887;SDS011;31595;51.418;7.572;2023-08-20T12:35:14;1.80;;;1.48;;
45887;SDS011;31595;51.418;7.572;2023-08-20T12:37:40;1.42;;;1.10;;
45887;SDS011;31595;51.418;7.572;2023-08-20T12:40:07;2.55;;;1.75;;
45887;SDS011;31595;51.418;7.572;2023-08-20T12:42:36;2.50;;;1.98;;
45887;SDS011;31595;51.418;7.572;2023-08-20T12:45:03;2.30;;;1.40;;
45887;SDS011;31595;51.418;7.572;2023-08-20T12:47:30;2.28;;;1.45;;
45887;SDS011;31595;51.418;7.572;2023-08-20T12:49:59;2.65;;;1.63;;
45887;SDS011;31595;51.418;7.572;2023-08-20T12:52:25;2.22;;;1.40;;
45887;SDS011;31595;51.418;7.572;2023-08-20T12:54:52;2.35;;;1.65;;
45887;SDS011;31595;51.418;7.572;2023-08-20T12:57:19;2.17;;;1.75;;
45887;SDS011;31595;51.418;7.572;2023-08-20T12:59:46;2.40;;;1.58;;
45887;SDS011;31595;51.418;7.572;2023-08-20T13:02:13;2.42;;;1.63;;
45887;SDS011;31595;51.418;7.572;2023-08-20T13:04:41;3.40;;;1.80;;
45887;SDS011;31595;51.418;7.572;2023-08-20T13:07:09;2.10;;;1.45;;
45887;SDS011;31595;51.418;7.572;2023-08-20T13:09:36;2.70;;;1.83;;
45887;SDS011;31595;51.418;7.572;2023-08-20T13:12:03;2.42;;;1.92;;
45887;SDS011;31595;51.418;7.572;2023-08-20T13:14:34;2.75;;;1.92;;
45887;SDS011;31595;51.418;7.572;2023-08-20T13:17:01;2.17;;;1.80;;
45887;SDS011;31595;51.418;7.572;2023-08-20T13:19:28;2.15;;;1.60;;
45887;SDS011;31595;51.418;7.572;2023-08-20T13:21:55;2.78;;;1.75;;
45887;SDS011;31595;51.418;7.572;2023-08-20T13:24:23;3.05;;;2.47;;
45887;SDS011;31595;51.418;7.572;2023-08-20T13:26:51;3.38;;;2.25;;
45887;SDS011;31595;51.418;7.572;2023-08-20T13:29:18;3.20;;;1.90;;
45887;SDS011;31595;51.418;7.572;2023-08-20T13:31:45;3.60;;;2.10;;
45887;SDS011;31595;51.418;7.572;2023-08-20T13:34:11;6.60;;;2.73;;
45887;SDS011;31595;51.418;7.572;2023-08-20T13:36:38;3.50;;;2.70;;
45887;SDS011;31595;51.418;7.572;2023-08-20T13:39:05;2.77;;;1.90;;
45887;SDS011;31595;51.418;7.572;2023-08-20T13:41:33;3.03;;;2.10;;
45887;SDS011;31595;51.418;7.572;2023-08-20T13:44:00;5.95;;;3.08;;
45887;SDS011;31595;51.418;7.572;2023-08-20T13:46:27;3.77;;;2.77;;
45887;SDS011;31595;51.418;7.572;2023-08-20T13:48:53;3.42;;;3.08;;
45887;SDS011;31595;51.418;7.572;2023-08-20T13:51:20;3.57;;;2.80;;
45887;SDS011;31595;51.418;7.572;2023-08-20T13:53:47;4.75;;;3.05;;
45887;SDS011;31595;51.418;7.572;2023-08-20T13:56:14;4.65;;;3.28;;
45887;SDS011;31595;51.418;7.572;2023-08-20T13:58:42;6.03;;;3.03;;
45887;SDS011;31595;51.418;7.572;2023-08-20T14:01:09;4.07;;;2.90;;
45887;SDS011;31595;51.418;7.572;2023-08-20T14:03:36;4.72;;;3.17;;
45887;SDS011;31595;51.418;7.572;2023-08-20T14:06:04;3.55;;;2.60;;
45887;SDS011;31595;51.418;7.572;2023-08-20T14:08:30;4.20;;;2.70;;
45887;SDS011;31595;51.418;7.572;2023-08-20T14:10:57;3.85;;;3.20;;
45887;SDS011;31595;51.418;7.572;2023-08-20T14:13:24;3.83;;;3.10;;
45887;SDS011;31595;51.418;7.572;2023-08-20T14:15:52;3.28;;;2.85;;
45887;SDS011;31595;51.418;7.572;2023-08-20T14:18:19;3.72;;;2.30;;
45887;SDS011;31595;51.418;7.572;2023-08-20T14:20:46;4.70;;;2.83;;
45887;SDS011;31595;51.418;7.572;2023-08-20T14:23:13;6.00;;;3.45;;
45887;SDS011;31595;51.418;7.572;2023-08-20T14:25:40;3.55;;;2.83;;
45887;SDS011;31595;51.418;7.572;2023-08-20T14:28:07;3.83;;;2.70;;
45887;SDS011;31595;51.418;7.572;2023-08-20T14:30:35;5.50;;;3.08;;
45887;SDS011;31595;51.418;7.572;2023-08-20T14:33:04;4.30;;;3.55;;
45887;SDS011;31595;51.418;7.572;2023-08-20T14:35:31;5.47;;;2.97;;
45887;SDS011;31595;51.418;7.572;2023-08-20T14:37:58;5.93;;;3.38;;
45887;SDS011;31595;51.418;7.572;2023-08-20T14:40:25;4.47;;;3.33;;
45887;SDS011;31595;51.418;7.572;2023-08-20T14:42:52;5.28;;;4.18;;
45887;SDS011;31595;51.418;7.572;2023-08-20T14:45:18;4.80;;;3.28;;
45887;SDS011;31595;51.418;7.572;2023-08-20T14:47:45;5.00;;;3.28;;
45887;SDS011;31595;51.418;7.572;2023-08-20T14:50:13;4.13;;;3.13;;
45887;SDS011;31595;51.418;7.572;2023-08-20T14:55:07;4.57;;;3.72;;
45887;SDS011;31595;51.418;7.572;2023-08-20T14:57:35;6.15;;;3.67;;
45887;SDS011;31595;51.418;7.572;2023-08-20T15:00:04;5.78;;;3.78;;
45887;SDS011;31595;51.418;7.572;2023-08-20T15:02:33;5.85;;;3.97;;
45887;SDS011;31595;51.418;7.572;2023-08-20T15:05:00;5.25;;;3.72;;
45887;SDS011;31595;51.418;7.572;2023-08-20T15:07:28;3.95;;;3.10;;
45887;SDS011;31595;51.418;7.572;2023-08-20T15:09:55;6.80;;;4.15;;